Schneifelwetter: Wetterstation Hallschlag, 537 m . NN
Wetterdaten: Dienstag, 09.08.2011
Datum Zeit Temp. A. Feuchte A. Luftdruck Regen Wind Richtung Richtung Sonnenschein Helligkeit T Regen Taupunkt Windchill
09.08.2011 00:09 8,8 C 95 % 1013 hPa 0,0 l/m 13,9 km/h (3 Bft) W-SW22.5 250 0 min 0 lux 0 min 8,0 C 4,2 C
09.08.2011 00:24 8,8 C 95 % 1013 hPa 0,0 l/m 16,7 km/h (3 Bft) W-SW22.5 245 0 min 0 lux 0 min 8,0 C 3,0 C
09.08.2011 00:39 8,8 C 95 % 1013 hPa 0,0 l/m 13,3 km/h (3 Bft) W-SW 245 0 min 0 lux 0 min 8,0 C 4,5 C
09.08.2011 00:54 8,9 C 95 % 1013 hPa 0,0 l/m 16,0 km/h (3 Bft) W-SW22.5 250 0 min 0 lux 0 min 8,1 C 3,4 C
09.08.2011 01:09 9,1 C 96 % 1013 hPa 0,0 l/m 17,6 km/h (3 Bft) SW45 230 0 min 0 lux 0 min 8,5 C 3,0 C
09.08.2011 01:24 9,2 C 96 % 1013 hPa 0,0 l/m 17,9 km/h (3 Bft) W-SW45 250 0 min 0 lux 0 min 8,6 C 3,0 C
09.08.2011 01:39 9,3 C 96 % 1013 hPa 0,0 l/m 12,0 km/h (2 Bft) SW45 235 0 min 0 lux 0 min 8,7 C 5,7 C
09.08.2011 01:54 9,5 C 96 % 1013 hPa 0,0 l/m 15,6 km/h (3 Bft) W-SW22.5 250 0 min 0 lux 0 min 8,9 C 4,3 C
09.08.2011 02:09 9,7 C 96 % 1013 hPa 0,0 l/m 20,4 km/h (4 Bft) W-SW45 250 0 min 0 lux 0 min 9,1 C 2,8 C
09.08.2011 02:24 9,8 C 96 % 1013 hPa 0,0 l/m 18,5 km/h (3 Bft) W-SW22.5 250 0 min 0 lux 0 min 9,2 C 3,5 C
09.08.2011 02:39 10,0 C 96 % 1013 hPa 0,9 l/m 23,7 km/h (4 Bft) W22.5 260 0 min 0 lux 15 min 9,4 C 2,2 C
09.08.2011 02:54 10,0 C 96 % 1013 hPa 0,0 l/m 24,0 km/h (4 Bft) W-SW45 255 0 min 0 lux 0 min 9,4 C 2,1 C
09.08.2011 03:09 10,0 C 96 % 1013 hPa 0,0 l/m 22,0 km/h (4 Bft) W45 260 0 min 0 lux 0 min 9,4 C 2,7 C
09.08.2011 03:24 10,1 C 96 % 1013 hPa 0,0 l/m 24,8 km/h (4 Bft) W45 260 0 min 0 lux 0 min 9,5 C 2,0 C
09.08.2011 03:39 10,1 C 96 % 1013 hPa 0,0 l/m 20,4 km/h (4 Bft) W-SW22.5 255 0 min 0 lux 0 min 9,5 C 3,3 C
09.08.2011 03:54 10,2 C 96 % 1013 hPa 0,0 l/m 22,1 km/h (4 Bft) W45 265 0 min 0 lux 0 min 9,6 C 2,9 C
09.08.2011 04:09 10,2 C 96 % 1014 hPa 0,0 l/m 29,0 km/h (5 Bft) W-SW45 245 0 min 0 lux 0 min 9,6 C 1,2 C
09.08.2011 04:24 10,2 C 96 % 1013 hPa 0,0 l/m 30,1 km/h (5 Bft) W67.5 260 0 min 0 lux 0 min 9,6 C 0,9 C
09.08.2011 04:39 10,2 C 95 % 1013 hPa 0,0 l/m 29,9 km/h (5 Bft) W45 260 0 min 0 lux 0 min 9,4 C 1,0 C
09.08.2011 04:54 10,2 C 95 % 1013 hPa 0,0 l/m 27,8 km/h (4 Bft) W45 260 0 min 0 lux 0 min 9,4 C 1,4 C
09.08.2011 05:09 10,2 C 95 % 1013 hPa 0,0 l/m 26,0 km/h (4 Bft) W22.5 260 0 min 0 lux 0 min 9,4 C 1,9 C
09.08.2011 05:24 10,2 C 95 % 1013 hPa 0,0 l/m 18,9 km/h (3 Bft) W45 260 0 min 0 lux 0 min 9,4 C 3,9 C
09.08.2011 05:39 10,2 C 95 % 1013 hPa 0,0 l/m 22,0 km/h (4 Bft) W45 260 0 min 0 lux 0 min 9,4 C 2,9 C
09.08.2011 05:54 10,3 C 95 % 1013 hPa 0,0 l/m 24,3 km/h (4 Bft) W-SW22.5 255 0 min 0 lux 0 min 9,5 C 2,4 C
09.08.2011 06:09 10,2 C 96 % 1013 hPa 0,0 l/m 24,8 km/h (4 Bft) W-SW67.5 250 0 min 105 lux 0 min 9,6 C 2,2 C
09.08.2011 06:24 10,2 C 96 % 1013 hPa 0,0 l/m 20,6 km/h (4 Bft) W-SW45 255 0 min 298 lux 0 min 9,6 C 3,4 C
09.08.2011 06:39 10,1 C 96 % 1013 hPa 0,0 l/m 19,4 km/h (3 Bft) W-SW45 240 0 min 471 lux 0 min 9,5 C 3,6 C
09.08.2011 06:54 10,1 C 96 % 1013 hPa 1,5 l/m 19,0 km/h (3 Bft) W-SW45 255 0 min 918 lux 15 min 9,5 C 3,7 C
09.08.2011 07:09 10,2 C 97 % 1013 hPa 0,0 l/m 23,3 km/h (4 Bft) SW45 235 0 min 1,34 klux 0 min 9,7 C 2,6 C
09.08.2011 07:24 10,4 C 97 % 1013 hPa 0,3 l/m 20,5 km/h (4 Bft) W22.5 260 0 min 2,36 klux 15 min 9,9 C 3,6 C
09.08.2011 07:39 10,4 C 97 % 1013 hPa 0,0 l/m 26,1 km/h (4 Bft) SW45 235 0 min 2,35 klux 0 min 9,9 C 2,1 C
09.08.2011 08:00 10,5 C 97 % 1014 hPa 0,0 l/m 28,6 km/h (4 Bft) W-SW22.5 250 0 min 6,82 klux 0 min 10,0 C 1,7 C
09.08.2011 08:15 10,7 C 97 % 1014 hPa 0,0 l/m 24,2 km/h (4 Bft) W-SW45 245 0 min 4,55 klux 0 min 10,2 C 3,0 C
09.08.2011 08:30 10,8 C 97 % 1014 hPa 0,0 l/m 21,3 km/h (4 Bft) W-SW22.5 255 0 min 7,21 klux 0 min 10,3 C 3,9 C
09.08.2011 08:45 11,0 C 96 % 1014 hPa 0,0 l/m 21,9 km/h (4 Bft) W-SW45 250 0 min 7,91 klux 0 min 10,4 C 4,0 C
09.08.2011 09:00 10,9 C 96 % 1014 hPa 0,0 l/m 25,0 km/h (4 Bft) W-SW45 255 0 min 7,21 klux 0 min 10,3 C 3,1 C
09.08.2011 09:15 11,0 C 96 % 1014 hPa 0,0 l/m 32,9 km/h (5 Bft) W45 280 0 min 6,92 klux 0 min 10,4 C 1,5 C
09.08.2011 09:30 10,6 C 93 % 1014 hPa 0,0 l/m 24,4 km/h (4 Bft) W45 280 0 min 12,1 klux 0 min 9,5 C 2,8 C
09.08.2011 09:45 10,9 C 93 % 1015 hPa 0,0 l/m 22,4 km/h (4 Bft) W45 275 0 min 20,6 klux 0 min 9,8 C 3,7 C
09.08.2011 10:00 11,5 C 90 % 1015 hPa 0,0 l/m 27,9 km/h (4 Bft) W45 265 0 min 27,8 klux 0 min 9,9 C 3,2 C
09.08.2011 10:15 11,6 C 90 % 1015 hPa 0,0 l/m 27,6 km/h (4 Bft) W22.5 270 0 min 26,0 klux 0 min 10,0 C 3,4 C
09.08.2011 10:30 12,6 C 89 % 1015 hPa 0,0 l/m 25,2 km/h (4 Bft) W45 270 0 min 59,1 klux 0 min 10,8 C 5,3 C
09.08.2011 10:45 13,2 C 87 % 1015 hPa 0,0 l/m 28,3 km/h (4 Bft) W45 270 15 min 78,0 klux 0 min 11,1 C 5,5 C
09.08.2011 11:00 13,5 C 80 % 1015 hPa 0,0 l/m 37,3 km/h (5 Bft) W22.5 265 15 min 88,2 klux 0 min 10,1 C 4,4 C
09.08.2011 11:15 14,2 C 80 % 1015 hPa 0,0 l/m 37,3 km/h (5 Bft) W22.5 275 15 min 73,5 klux 0 min 10,8 C 5,5 C
09.08.2011 11:30 14,9 C 75 % 1016 hPa 0,0 l/m 37,2 km/h (5 Bft) W67.5 270 15 min 77,7 klux 0 min 10,5 C 6,5 C
09.08.2011 11:45 15,1 C 74 % 1016 hPa 0,0 l/m 30,6 km/h (5 Bft) W45 275 15 min 78,9 klux 0 min 10,5 C 7,7 C
09.08.2011 12:00 15,3 C 72 % 1016 hPa 3,0 l/m 33,1 km/h (5 Bft) W22.5 270 15 min 82,0 klux 15 min 10,3 C 7,6 C
09.08.2011 12:15 15,8 C 70 % 1016 hPa 0,0 l/m 29,6 km/h (5 Bft) W22.5 260 15 min 93,3 klux 0 min 10,3 C 8,9 C
09.08.2011 12:30 16,0 C 71 % 1016 hPa 0,0 l/m 27,6 km/h (4 Bft) W45 265 15 min 101 klux 0 min 10,7 C 9,5 C
09.08.2011 12:45 16,3 C 68 % 1016 hPa 0,0 l/m 25,6 km/h (4 Bft) W45 270 15 min 114 klux 0 min 10,4 C 10,3 C
09.08.2011 13:00 16,2 C 67 % 1016 hPa 0,0 l/m 26,9 km/h (4 Bft) W45 270 15 min 113 klux 0 min 10,1 C 9,9 C
09.08.2011 13:15 13,7 C 73 % 1017 hPa 0,0 l/m 34,8 km/h (5 Bft) W45 275 0 min 23,0 klux 0 min 8,9 C 5,1 C
09.08.2011 13:30 12,4 C 80 % 1017 hPa 0,0 l/m 27,5 km/h (4 Bft) W22.5 275 0 min 23,9 klux 0 min 9,0 C 4,5 C
09.08.2011 13:45 12,2 C 81 % 1017 hPa 0,9 l/m 20,2 km/h (4 Bft) W22.5 270 0 min 33,3 klux 15 min 9,0 C 6,1 C
09.08.2011 14:00 12,6 C 80 % 1017 hPa 0,0 l/m 17,3 km/h (3 Bft) W22.5 275 0 min 39,7 klux 0 min 9,2 C 7,5 C
09.08.2011 14:15 13,5 C 81 % 1017 hPa 0,0 l/m 17,1 km/h (3 Bft) W22.5 270 15 min 76,0 klux 0 min 10,3 C 8,7 C
09.08.2011 14:30 13,8 C 77 % 1018 hPa 0,0 l/m 28,0 km/h (4 Bft) W22.5 270 0 min 34,4 klux 0 min 9,8 C 6,4 C
09.08.2011 14:45 14,0 C 77 % 1018 hPa 0,0 l/m 26,0 km/h (4 Bft) W22.5 270 15 min 110 klux 0 min 10,0 C 7,0 C
09.08.2011 15:00 14,4 C 74 % 1018 hPa 0,0 l/m 28,5 km/h (4 Bft) W22.5 270 0 min 56,3 klux 0 min 9,8 C 7,1 C
09.08.2011 15:15 13,4 C 76 % 1018 hPa 0,0 l/m 27,5 km/h (4 Bft) W22.5 265 0 min 12,0 klux 0 min 9,3 C 5,9 C
09.08.2011 15:30 12,6 C 80 % 1018 hPa 0,0 l/m 20,7 km/h (4 Bft) W22.5 275 0 min 15,2 klux 0 min 9,2 C 6,4 C
09.08.2011 15:45 13,0 C 83 % 1019 hPa 0,0 l/m 20,8 km/h (4 Bft) W22.5 270 15 min 84,2 klux 0 min 10,2 C 6,9 C
09.08.2011 16:00 13,2 C 78 % 1019 hPa 0,0 l/m 30,1 km/h (5 Bft) W67.5 265 0 min 50,1 klux 0 min 9,4 C 5,1 C
09.08.2011 16:15 12,3 C 79 % 1019 hPa 0,0 l/m 23,5 km/h (4 Bft) W-NW45 285 0 min 12,3 klux 0 min 8,8 C 5,3 C
09.08.2011 16:30 12,0 C 76 % 1019 hPa 0,0 l/m 21,3 km/h (4 Bft) W45 260 0 min 25,2 klux 0 min 7,9 C 5,5 C
09.08.2011 16:45 12,5 C 76 % 1019 hPa 0,0 l/m 30,7 km/h (5 Bft) W-NW45 290 15 min 83,9 klux 0 min 8,4 C 4,0 C
09.08.2011 17:00 13,3 C 75 % 1019 hPa 0,0 l/m 30,2 km/h (5 Bft) W-NW45 285 15 min 73,5 klux 0 min 9,0 C 5,3 C
09.08.2011 17:15 13,6 C 74 % 1019 hPa 0,0 l/m 30,6 km/h (5 Bft) W-NW45 290 15 min 74,6 klux 0 min 9,1 C 5,6 C
09.08.2011 17:30 13,3 C 74 % 1019 hPa 0,0 l/m 24,5 km/h (4 Bft) W-NW22.5 285 0 min 24,3 klux 0 min 8,8 C 6,4 C
09.08.2011 17:44 12,6 C 76 % 1019 hPa 0,0 l/m 23,8 km/h (4 Bft) W45 270 0 min 14,1 klux 0 min 8,5 C 5,6 C
09.08.2011 18:00 12,7 C 76 % 1019 hPa 0,0 l/m 28,6 km/h (4 Bft) W45 280 0 min 37,8 klux 0 min 8,6 C 4,7 C
09.08.2011 18:15 12,8 C 76 % 1019 hPa 0,0 l/m 23,0 km/h (4 Bft) W45 275 0 min 46,4 klux 0 min 8,7 C 6,1 C
09.08.2011 18:30 12,1 C 76 % 1020 hPa 0,3 l/m 26,8 km/h (4 Bft) W67.5 275 0 min 5,31 klux 15 min 8,0 C 4,3 C
09.08.2011 18:45 11,8 C 77 % 1020 hPa 0,0 l/m 29,3 km/h (5 Bft) W67.5 275 0 min 9,8 klux 0 min 7,9 C 3,3 C
09.08.2011 19:00 11,6 C 76 % 1020 hPa 0,0 l/m 25,0 km/h (4 Bft) W45 280 0 min 9,8 klux 0 min 7,5 C 4,0 C
09.08.2011 19:14 11,8 C 76 % 1020 hPa 0,0 l/m 24,3 km/h (4 Bft) W67.5 270 0 min 37,0 klux 0 min 7,7 C 4,4 C
09.08.2011 19:30 12,4 C 74 % 1020 hPa 0,0 l/m 21,1 km/h (4 Bft) W45 270 0 min 34,1 klux 0 min 7,9 C 6,1 C
09.08.2011 19:45 12,0 C 73 % 1020 hPa 0,0 l/m 18,5 km/h (3 Bft) W-NW22.5 285 0 min 11,7 klux 0 min 7,3 C 6,3 C
09.08.2011 20:00 11,5 C 75 % 1021 hPa 0,0 l/m 20,2 km/h (4 Bft) W45 280 0 min 4,82 klux 0 min 7,2 C 5,2 C
09.08.2011 20:15 10,9 C 79 % 1021 hPa 0,0 l/m 18,5 km/h (3 Bft) W22.5 270 0 min 537 lux 0 min 7,4 C 4,9 C
09.08.2011 20:30 10,4 C 80 % 1021 hPa 0,3 l/m 28,6 km/h (4 Bft) W45 280 0 min 2,04 klux 15 min 7,1 C 1,5 C
09.08.2011 20:44 9,9 C 82 % 1021 hPa 0,0 l/m 17,1 km/h (3 Bft) W-NW67.5 285 0 min 2,71 klux 0 min 7,0 C 4,2 C
09.08.2011 21:00 9,5 C 83 % 1021 hPa 0,0 l/m 30,0 km/h (5 Bft) W45 280 0 min 1,37 klux 0 min 6,8 C -0,0 C
09.08.2011 21:15 9,4 C 84 % 1021 hPa 0,0 l/m 23,5 km/h (4 Bft) W22.5 270 0 min 142 lux 0 min 6,8 C 1,4 C
09.08.2011 21:30 9,4 C 86 % 1022 hPa 0,0 l/m 14,6 km/h (3 Bft) W22.5 270 0 min 27 lux 0 min 7,2 C 4,6 C
09.08.2011 21:45 9,3 C 86 % 1022 hPa 0,0 l/m 18,0 km/h (3 Bft) W45 275 0 min 12 lux 0 min 7,1 C 3,1 C
09.08.2011 22:00 9,2 C 87 % 1022 hPa 0,0 l/m 16,2 km/h (3 Bft) W45 270 0 min 0 lux 0 min 7,2 C 3,7 C
09.08.2011 22:15 9,2 C 87 % 1022 hPa 0,0 l/m 14,4 km/h (3 Bft) W-SW22.5 255 0 min 0 lux 0 min 7,2 C 4,4 C
09.08.2011 22:30 9,2 C 87 % 1022 hPa 0,0 l/m 14,1 km/h (3 Bft) W45 260 0 min 0 lux 0 min 7,2 C 4,6 C
09.08.2011 22:45 9,3 C 88 % 1022 hPa 0,0 l/m 13,8 km/h (3 Bft) W45 270 0 min 0 lux 0 min 7,4 C 4,8 C
09.08.2011 23:00 9,2 C 89 % 1023 hPa 0,3 l/m 15,1 km/h (3 Bft) W22.5 275 0 min 0 lux 15 min 7,5 C 4,1 C
09.08.2011 23:15 9,0 C 89 % 1023 hPa 0,0 l/m 14,8 km/h (3 Bft) W45 270 0 min 0 lux 0 min 7,3 C 4,0 C
09.08.2011 23:30 8,6 C 89 % 1023 hPa 0,0 l/m 16,1 km/h (3 Bft) W45 270 0 min 0 lux 0 min 6,9 C 3,0 C
09.08.2011 23:45 8,2 C 89 % 1023 hPa 0,0 l/m 23,7 km/h (4 Bft) W22.5 260 0 min 0 lux 0 min 6,5 C -0,2 C
09.08.2011 23:54 7,9 C 89 % 1023 hPa 0,0 l/m 14,5 km/h (3 Bft) W-NW22.5 290 0 min 0 lux 0 min 6,2 C 2,8 C
_ Min-Zeit 23:54 13:00 00:09 - 01:39 - - - - - 23:54 23:45
Minimum _ 7,9 C 67 % 1013 hPa - 12,0 km/h (2 Bft) - - - - - 6,2 C -0,2 C
_ Max-Zeit 12:45 07:09 23:00 12:00 11:00 - - 10:45 12:45 02:39 10:45 12:45
Maximum _ 16,3 C 97 % 1023 hPa 3,0 l/m 37,3 km/h
W (5 Bft)
- - 15 min 114 klux 15 min 11,1 C 10,3 C
Durchschnitt _ 11,3 C 86 % 1017 hPa #7,5 l/m 23,5 km/h (4 Bft) W - #4:00 h 22,7 klux #2:00 h 9,0 C 4,3 C